sensor_id;sensor_type;location;lat;lon;timestamp;P1;durP1;ratioP1;P2;durP2;ratioP2
38455;SDS011;24237;50.106;20.014;2023-07-20T00:02:20;11.82;;;5.30;;
38455;SDS011;24237;50.106;20.014;2023-07-20T00:04:46;13.45;;;5.03;;
38455;SDS011;24237;50.106;20.014;2023-07-20T00:07:11;25.08;;;14.65;;
38455;SDS011;24237;50.106;20.014;2023-07-20T00:09:37;14.02;;;7.72;;
38455;SDS011;24237;50.106;20.014;2023-07-20T00:12:03;9.77;;;5.45;;
38455;SDS011;24237;50.106;20.014;2023-07-20T00:14:28;11.30;;;6.10;;
38455;SDS011;24237;50.106;20.014;2023-07-20T00:16:55;9.38;;;5.47;;
38455;SDS011;24237;50.106;20.014;2023-07-20T00:19:24;9.83;;;4.87;;
38455;SDS011;24237;50.106;20.014;2023-07-20T00:21:51;10.52;;;5.65;;
38455;SDS011;24237;50.106;20.014;2023-07-20T00:24:17;22.20;;;8.88;;
38455;SDS011;24237;50.106;20.014;2023-07-20T00:26:43;23.92;;;12.50;;
38455;SDS011;24237;50.106;20.014;2023-07-20T00:29:09;14.98;;;6.82;;
38455;SDS011;24237;50.106;20.014;2023-07-20T00:31:35;17.10;;;5.97;;
38455;SDS011;24237;50.106;20.014;2023-07-20T00:34:02;19.73;;;6.47;;
38455;SDS011;24237;50.106;20.014;2023-07-20T00:36:28;10.00;;;5.88;;
38455;SDS011;24237;50.106;20.014;2023-07-20T00:38:54;16.85;;;6.38;;
38455;SDS011;24237;50.106;20.014;2023-07-20T00:41:19;12.73;;;5.75;;
38455;SDS011;24237;50.106;20.014;2023-07-20T00:43:45;8.63;;;5.15;;
38455;SDS011;24237;50.106;20.014;2023-07-20T00:46:11;15.23;;;7.38;;
38455;SDS011;24237;50.106;20.014;2023-07-20T00:48:37;15.15;;;6.38;;
38455;SDS011;24237;50.106;20.014;2023-07-20T00:51:03;12.93;;;6.65;;
38455;SDS011;24237;50.106;20.014;2023-07-20T00:53:29;13.25;;;5.82;;
38455;SDS011;24237;50.106;20.014;2023-07-20T00:55:55;14.98;;;5.53;;
38455;SDS011;24237;50.106;20.014;2023-07-20T00:58:21;15.00;;;6.05;;
38455;SDS011;24237;50.106;20.014;2023-07-20T01:00:47;13.15;;;6.05;;
38455;SDS011;24237;50.106;20.014;2023-07-20T01:03:13;7.63;;;5.47;;
38455;SDS011;24237;50.106;20.014;2023-07-20T01:05:48;10.30;;;5.50;;
38455;SDS011;24237;50.106;20.014;2023-07-20T01:08:43;13.85;;;6.40;;
38455;SDS011;24237;50.106;20.014;2023-07-20T01:14:00;15.18;;;6.60;;
38455;SDS011;24237;50.106;20.014;2023-07-20T01:16:27;13.27;;;6.50;;
38455;SDS011;24237;50.106;20.014;2023-07-20T01:18:53;13.38;;;5.68;;
38455;SDS011;24237;50.106;20.014;2023-07-20T01:21:21;16.25;;;6.75;;
38455;SDS011;24237;50.106;20.014;2023-07-20T01:24:17;15.85;;;6.50;;
38455;SDS011;24237;50.106;20.014;2023-07-20T01:27:16;12.77;;;5.82;;
38455;SDS011;24237;50.106;20.014;2023-07-20T01:30:16;13.30;;;6.55;;
38455;SDS011;24237;50.106;20.014;2023-07-20T01:32:58;13.90;;;6.00;;
38455;SDS011;24237;50.106;20.014;2023-07-20T01:35:27;11.25;;;6.13;;
38455;SDS011;24237;50.106;20.014;2023-07-20T01:37:54;11.65;;;6.22;;
38455;SDS011;24237;50.106;20.014;2023-07-20T01:40:21;11.40;;;5.70;;
38455;SDS011;24237;50.106;20.014;2023-07-20T01:42:48;11.27;;;5.43;;
38455;SDS011;24237;50.106;20.014;2023-07-20T01:45:14;13.98;;;5.68;;
38455;SDS011;24237;50.106;20.014;2023-07-20T01:47:39;12.77;;;5.57;;
38455;SDS011;24237;50.106;20.014;2023-07-20T01:50:06;14.23;;;5.63;;
38455;SDS011;24237;50.106;20.014;2023-07-20T01:52:32;10.00;;;5.27;;
38455;SDS011;24237;50.106;20.014;2023-07-20T01:54:57;14.50;;;6.07;;
38455;SDS011;24237;50.106;20.014;2023-07-20T01:57:23;13.55;;;5.85;;
38455;SDS011;24237;50.106;20.014;2023-07-20T01:59:48;9.15;;;5.40;;
38455;SDS011;24237;50.106;20.014;2023-07-20T02:02:14;8.77;;;5.13;;
38455;SDS011;24237;50.106;20.014;2023-07-20T02:04:39;12.88;;;6.03;;
38455;SDS011;24237;50.106;20.014;2023-07-20T02:07:05;13.32;;;6.40;;
38455;SDS011;24237;50.106;20.014;2023-07-20T02:09:31;11.90;;;5.20;;
38455;SDS011;24237;50.106;20.014;2023-07-20T02:11:56;11.40;;;5.18;;
38455;SDS011;24237;50.106;20.014;2023-07-20T02:14:22;16.10;;;5.47;;
38455;SDS011;24237;50.106;20.014;2023-07-20T02:16:48;10.98;;;4.78;;
38455;SDS011;24237;50.106;20.014;2023-07-20T02:19:17;8.82;;;5.00;;
38455;SDS011;24237;50.106;20.014;2023-07-20T02:21:44;10.67;;;5.23;;
38455;SDS011;24237;50.106;20.014;2023-07-20T02:24:10;9.45;;;4.80;;
38455;SDS011;24237;50.106;20.014;2023-07-20T02:26:36;11.43;;;5.30;;
38455;SDS011;24237;50.106;20.014;2023-07-20T02:29:02;10.57;;;5.13;;
38455;SDS011;24237;50.106;20.014;2023-07-20T02:33:55;11.25;;;5.10;;
38455;SDS011;24237;50.106;20.014;2023-07-20T02:36:21;14.13;;;5.55;;
38455;SDS011;24237;50.106;20.014;2023-07-20T02:38:46;12.77;;;5.30;;
38455;SDS011;24237;50.106;20.014;2023-07-20T02:41:13;11.88;;;5.00;;
38455;SDS011;24237;50.106;20.014;2023-07-20T02:43:38;9.65;;;5.25;;
38455;SDS011;24237;50.106;20.014;2023-07-20T02:46:04;13.10;;;5.03;;
38455;SDS011;24237;50.106;20.014;2023-07-20T02:48:29;10.85;;;5.35;;
38455;SDS011;24237;50.106;20.014;2023-07-20T02:50:55;10.25;;;5.35;;
38455;SDS011;24237;50.106;20.014;2023-07-20T02:53:21;13.18;;;4.90;;
38455;SDS011;24237;50.106;20.014;2023-07-20T02:55:46;10.90;;;5.85;;
38455;SDS011;24237;50.106;20.014;2023-07-20T02:58:12;8.13;;;4.80;;
38455;SDS011;24237;50.106;20.014;2023-07-20T03:00:37;10.43;;;4.93;;
38455;SDS011;24237;50.106;20.014;2023-07-20T03:03:03;14.38;;;5.50;;
38455;SDS011;24237;50.106;20.014;2023-07-20T03:05:28;8.48;;;4.93;;
38455;SDS011;24237;50.106;20.014;2023-07-20T03:07:55;9.35;;;4.82;;
38455;SDS011;24237;50.106;20.014;2023-07-20T03:10:21;11.93;;;5.35;;
38455;SDS011;24237;50.106;20.014;2023-07-20T03:12:46;9.10;;;5.05;;
38455;SDS011;24237;50.106;20.014;2023-07-20T03:15:12;9.77;;;4.75;;
38455;SDS011;24237;50.106;20.014;2023-07-20T03:17:37;8.05;;;4.70;;
38455;SDS011;24237;50.106;20.014;2023-07-20T03:20:03;10.27;;;5.55;;
38455;SDS011;24237;50.106;20.014;2023-07-20T03:22:33;13.43;;;5.28;;
38455;SDS011;24237;50.106;20.014;2023-07-20T03:24:59;9.90;;;4.57;;
38455;SDS011;24237;50.106;20.014;2023-07-20T03:27:25;11.57;;;4.60;;
38455;SDS011;24237;50.106;20.014;2023-07-20T03:29:50;10.98;;;4.78;;
38455;SDS011;24237;50.106;20.014;2023-07-20T03:32:16;11.13;;;4.80;;
38455;SDS011;24237;50.106;20.014;2023-07-20T03:34:41;12.70;;;4.30;;
38455;SDS011;24237;50.106;20.014;2023-07-20T03:37:07;9.48;;;3.95;;
38455;SDS011;24237;50.106;20.014;2023-07-20T03:39:32;12.30;;;4.53;;
38455;SDS011;24237;50.106;20.014;2023-07-20T03:41:58;10.90;;;4.80;;
38455;SDS011;24237;50.106;20.014;2023-07-20T03:44:24;10.05;;;5.28;;
38455;SDS011;24237;50.106;20.014;2023-07-20T03:46:49;10.45;;;5.22;;
38455;SDS011;24237;50.106;20.014;2023-07-20T03:49:15;12.45;;;4.28;;
38455;SDS011;24237;50.106;20.014;2023-07-20T03:51:41;11.18;;;4.28;;
38455;SDS011;24237;50.106;20.014;2023-07-20T03:54:06;11.73;;;4.53;;
38455;SDS011;24237;50.106;20.014;2023-07-20T03:56:32;11.32;;;4.30;;
38455;SDS011;24237;50.106;20.014;2023-07-20T03:59:00;12.85;;;4.40;;
38455;SDS011;24237;50.106;20.014;2023-07-20T04:01:26;17.13;;;4.75;;
38455;SDS011;24237;50.106;20.014;2023-07-20T04:03:52;11.90;;;5.10;;
38455;SDS011;24237;50.106;20.014;2023-07-20T04:06:17;13.75;;;5.43;;
38455;SDS011;24237;50.106;20.014;2023-07-20T04:08:44;21.33;;;6.40;;
38455;SDS011;24237;50.106;20.014;2023-07-20T04:11:12;13.80;;;5.05;;
38455;SDS011;24237;50.106;20.014;2023-07-20T04:13:37;11.20;;;5.40;;
38455;SDS011;24237;50.106;20.014;2023-07-20T04:16:03;16.25;;;5.88;;
38455;SDS011;24237;50.106;20.014;2023-07-20T04:18:29;14.73;;;7.20;;
38455;SDS011;24237;50.106;20.014;2023-07-20T04:20:54;10.65;;;5.20;;
38455;SDS011;24237;50.106;20.014;2023-07-20T04:23:20;15.68;;;5.00;;
38455;SDS011;24237;50.106;20.014;2023-07-20T04:25:45;11.38;;;5.85;;
38455;SDS011;24237;50.106;20.014;2023-07-20T04:28:11;17.73;;;6.15;;
38455;SDS011;24237;50.106;20.014;2023-07-20T04:30:38;16.85;;;6.20;;
38455;SDS011;24237;50.106;20.014;2023-07-20T04:38:15;12.70;;;5.93;;
38455;SDS011;24237;50.106;20.014;2023-07-20T04:40:42;11.30;;;5.27;;
38455;SDS011;24237;50.106;20.014;2023-07-20T04:43:09;8.77;;;4.83;;
38455;SDS011;24237;50.106;20.014;2023-07-20T04:45:34;10.25;;;5.28;;
38455;SDS011;24237;50.106;20.014;2023-07-20T04:48:00;8.70;;;5.00;;
38455;SDS011;24237;50.106;20.014;2023-07-20T04:50:25;13.48;;;5.95;;
38455;SDS011;24237;50.106;20.014;2023-07-20T04:52:51;14.38;;;4.57;;
38455;SDS011;24237;50.106;20.014;2023-07-20T04:55:18;13.10;;;5.03;;
38455;SDS011;24237;50.106;20.014;2023-07-20T04:57:43;10.98;;;3.90;;
38455;SDS011;24237;50.106;20.014;2023-07-20T05:00:09;11.15;;;4.00;;
38455;SDS011;24237;50.106;20.014;2023-07-20T05:02:36;21.30;;;5.18;;
38455;SDS011;24237;50.106;20.014;2023-07-20T05:05:02;13.27;;;5.13;;
38455;SDS011;24237;50.106;20.014;2023-07-20T05:07:30;8.63;;;4.25;;
38455;SDS011;24237;50.106;20.014;2023-07-20T05:09:59;13.98;;;4.32;;
38455;SDS011;24237;50.106;20.014;2023-07-20T05:12:24;9.27;;;4.70;;
38455;SDS011;24237;50.106;20.014;2023-07-20T05:14:50;26.77;;;5.30;;
38455;SDS011;24237;50.106;20.014;2023-07-20T05:17:16;11.25;;;4.63;;
38455;SDS011;24237;50.106;20.014;2023-07-20T05:19:41;7.72;;;4.18;;
38455;SDS011;24237;50.106;20.014;2023-07-20T05:22:07;11.00;;;4.55;;
38455;SDS011;24237;50.106;20.014;2023-07-20T05:24:32;13.57;;;4.10;;
38455;SDS011;24237;50.106;20.014;2023-07-20T05:26:59;9.27;;;3.97;;
38455;SDS011;24237;50.106;20.014;2023-07-20T05:29:25;13.98;;;3.75;;
38455;SDS011;24237;50.106;20.014;2023-07-20T05:31:50;16.30;;;4.85;;
38455;SDS011;24237;50.106;20.014;2023-07-20T05:34:16;22.20;;;5.00;;
38455;SDS011;24237;50.106;20.014;2023-07-20T05:36:41;11.50;;;4.40;;
38455;SDS011;24237;50.106;20.014;2023-07-20T05:39:07;10.73;;;3.97;;
38455;SDS011;24237;50.106;20.014;2023-07-20T05:41:33;6.35;;;3.42;;
38455;SDS011;24237;50.106;20.014;2023-07-20T05:43:58;6.10;;;3.47;;
38455;SDS011;24237;50.106;20.014;2023-07-20T05:46:24;7.57;;;3.75;;
38455;SDS011;24237;50.106;20.014;2023-07-20T05:48:49;20.85;;;4.57;;
38455;SDS011;24237;50.106;20.014;2023-07-20T05:51:15;9.13;;;3.28;;
38455;SDS011;24237;50.106;20.014;2023-07-20T05:53:41;7.18;;;3.50;;
38455;SDS011;24237;50.106;20.014;2023-07-20T05:56:06;7.45;;;3.50;;
38455;SDS011;24237;50.106;20.014;2023-07-20T05:58:35;9.02;;;3.75;;
38455;SDS011;24237;50.106;20.014;2023-07-20T06:01:01;9.15;;;3.53;;
38455;SDS011;24237;50.106;20.014;2023-07-20T06:03:30;9.05;;;3.47;;
38455;SDS011;24237;50.106;20.014;2023-07-20T06:06:02;9.30;;;3.47;;
38455;SDS011;24237;50.106;20.014;2023-07-20T06:08:29;5.68;;;3.33;;
38455;SDS011;24237;50.106;20.014;2023-07-20T06:10:56;5.90;;;2.92;;
38455;SDS011;24237;50.106;20.014;2023-07-20T06:13:22;12.52;;;3.53;;
38455;SDS011;24237;50.106;20.014;2023-07-20T06:15:48;5.55;;;2.88;;
38455;SDS011;24237;50.106;20.014;2023-07-20T06:18:14;5.40;;;3.08;;
38455;SDS011;24237;50.106;20.014;2023-07-20T06:20:40;12.55;;;3.65;;
38455;SDS011;24237;50.106;20.014;2023-07-20T06:23:05;17.77;;;3.88;;
38455;SDS011;24237;50.106;20.014;2023-07-20T06:25:31;17.30;;;3.80;;
38455;SDS011;24237;50.106;20.014;2023-07-20T06:27:57;10.75;;;3.60;;
38455;SDS011;24237;50.106;20.014;2023-07-20T06:30:22;11.30;;;3.05;;
38455;SDS011;24237;50.106;20.014;2023-07-20T06:32:51;8.20;;;3.83;;
38455;SDS011;24237;50.106;20.014;2023-07-20T06:35:17;8.68;;;3.13;;
38455;SDS011;24237;50.106;20.014;2023-07-20T06:37:42;12.85;;;3.10;;
38455;SDS011;24237;50.106;20.014;2023-07-20T06:40:08;9.27;;;2.90;;
38455;SDS011;24237;50.106;20.014;2023-07-20T06:42:34;9.60;;;3.10;;
38455;SDS011;24237;50.106;20.014;2023-07-20T06:45:00;15.02;;;3.72;;
38455;SDS011;24237;50.106;20.014;2023-07-20T06:47:25;6.22;;;2.88;;
38455;SDS011;24237;50.106;20.014;2023-07-20T06:49:51;6.43;;;3.13;;
38455;SDS011;24237;50.106;20.014;2023-07-20T06:52:17;7.45;;;2.80;;
38455;SDS011;24237;50.106;20.014;2023-07-20T06:54:42;9.80;;;3.20;;
38455;SDS011;24237;50.106;20.014;2023-07-20T06:57:08;20.10;;;3.33;;
38455;SDS011;24237;50.106;20.014;2023-07-20T06:59:33;16.17;;;3.95;;
38455;SDS011;24237;50.106;20.014;2023-07-20T07:01:59;13.35;;;4.15;;
38455;SDS011;24237;50.106;20.014;2023-07-20T07:04:25;6.75;;;3.28;;
38455;SDS011;24237;50.106;20.014;2023-07-20T07:06:51;11.45;;;3.10;;
38455;SDS011;24237;50.106;20.014;2023-07-20T07:09:16;7.13;;;3.20;;
38455;SDS011;24237;50.106;20.014;2023-07-20T07:11:42;9.07;;;2.92;;
38455;SDS011;24237;50.106;20.014;2023-07-20T07:14:08;8.57;;;3.63;;
38455;SDS011;24237;50.106;20.014;2023-07-20T07:16:34;11.20;;;3.58;;
38455;SDS011;24237;50.106;20.014;2023-07-20T07:18:59;11.60;;;4.32;;
38455;SDS011;24237;50.106;20.014;2023-07-20T07:21:25;11.32;;;4.72;;
38455;SDS011;24237;50.106;20.014;2023-07-20T07:23:50;5.65;;;3.70;;
38455;SDS011;24237;50.106;20.014;2023-07-20T07:26:18;14.40;;;4.25;;
38455;SDS011;24237;50.106;20.014;2023-07-20T07:28:44;9.30;;;3.95;;
38455;SDS011;24237;50.106;20.014;2023-07-20T07:31:09;9.75;;;3.65;;
38455;SDS011;24237;50.106;20.014;2023-07-20T07:33:35;10.40;;;3.95;;
38455;SDS011;24237;50.106;20.014;2023-07-20T07:36:01;12.32;;;4.18;;
38455;SDS011;24237;50.106;20.014;2023-07-20T07:38:26;8.20;;;4.10;;
38455;SDS011;24237;50.106;20.014;2023-07-20T07:40:52;7.13;;;3.83;;
38455;SDS011;24237;50.106;20.014;2023-07-20T07:43:18;13.38;;;4.22;;
38455;SDS011;24237;50.106;20.014;2023-07-20T07:45:43;7.93;;;4.13;;
38455;SDS011;24237;50.106;20.014;2023-07-20T07:48:09;8.70;;;3.85;;
38455;SDS011;24237;50.106;20.014;2023-07-20T07:50:37;7.88;;;4.25;;
38455;SDS011;24237;50.106;20.014;2023-07-20T07:53:05;24.02;;;5.15;;
38455;SDS011;24237;50.106;20.014;2023-07-20T07:55:30;9.50;;;4.10;;
38455;SDS011;24237;50.106;20.014;2023-07-20T07:57:56;7.95;;;3.45;;
38455;SDS011;24237;50.106;20.014;2023-07-20T08:00:22;8.48;;;3.40;;
38455;SDS011;24237;50.106;20.014;2023-07-20T08:02:47;11.68;;;3.88;;
38455;SDS011;24237;50.106;20.014;2023-07-20T08:05:15;11.20;;;3.70;;
38455;SDS011;24237;50.106;20.014;2023-07-20T08:07:40;7.40;;;3.70;;
38455;SDS011;24237;50.106;20.014;2023-07-20T08:10:06;11.57;;;3.38;;
38455;SDS011;24237;50.106;20.014;2023-07-20T08:12:32;8.57;;;3.42;;
38455;SDS011;24237;50.106;20.014;2023-07-20T08:14:58;7.15;;;3.60;;
38455;SDS011;24237;50.106;20.014;2023-07-20T08:17:23;7.68;;;3.70;;
38455;SDS011;24237;50.106;20.014;2023-07-20T08:19:49;11.05;;;4.30;;
38455;SDS011;24237;50.106;20.014;2023-07-20T08:22:15;10.43;;;4.28;;
38455;SDS011;24237;50.106;20.014;2023-07-20T08:24:41;9.55;;;4.10;;
38455;SDS011;24237;50.106;20.014;2023-07-20T08:27:07;8.60;;;4.30;;
38455;SDS011;24237;50.106;20.014;2023-07-20T08:29:34;7.22;;;4.32;;
38455;SDS011;24237;50.106;20.014;2023-07-20T08:31:59;10.13;;;4.30;;
38455;SDS011;24237;50.106;20.014;2023-07-20T08:34:25;7.03;;;3.80;;
38455;SDS011;24237;50.106;20.014;2023-07-20T08:36:51;6.70;;;3.85;;
38455;SDS011;24237;50.106;20.014;2023-07-20T08:39:16;6.90;;;3.70;;
38455;SDS011;24237;50.106;20.014;2023-07-20T08:41:42;9.30;;;4.03;;
38455;SDS011;24237;50.106;20.014;2023-07-20T08:44:08;11.43;;;3.78;;
38455;SDS011;24237;50.106;20.014;2023-07-20T08:46:35;9.98;;;3.55;;
38455;SDS011;24237;50.106;20.014;2023-07-20T08:49:03;9.18;;;3.58;;
38455;SDS011;24237;50.106;20.014;2023-07-20T08:51:30;8.45;;;3.30;;
38455;SDS011;24237;50.106;20.014;2023-07-20T08:53:57;10.20;;;3.42;;
38455;SDS011;24237;50.106;20.014;2023-07-20T08:56:23;8.82;;;3.38;;
38455;SDS011;24237;50.106;20.014;2023-07-20T08:58:54;10.45;;;3.53;;
38455;SDS011;24237;50.106;20.014;2023-07-20T09:01:21;6.85;;;3.58;;
38455;SDS011;24237;50.106;20.014;2023-07-20T09:03:47;4.25;;;3.15;;
38455;SDS011;24237;50.106;20.014;2023-07-20T09:06:13;10.52;;;3.97;;
38455;SDS011;24237;50.106;20.014;2023-07-20T09:08:39;7.15;;;3.38;;
38455;SDS011;24237;50.106;20.014;2023-07-20T09:11:05;4.80;;;2.63;;
38455;SDS011;24237;50.106;20.014;2023-07-20T09:13:34;5.53;;;2.90;;
38455;SDS011;24237;50.106;20.014;2023-07-20T09:16:00;4.57;;;2.50;;
38455;SDS011;24237;50.106;20.014;2023-07-20T09:18:27;5.53;;;2.67;;
38455;SDS011;24237;50.106;20.014;2023-07-20T09:20:57;7.20;;;2.20;;
38455;SDS011;24237;50.106;20.014;2023-07-20T09:23:31;6.43;;;2.92;;
38455;SDS011;24237;50.106;20.014;2023-07-20T09:26:00;12.57;;;2.30;;
38455;SDS011;24237;50.106;20.014;2023-07-20T09:28:41;4.25;;;2.38;;
38455;SDS011;24237;50.106;20.014;2023-07-20T09:31:21;6.35;;;2.55;;
38455;SDS011;24237;50.106;20.014;2023-07-20T09:33:48;5.30;;;2.50;;
38455;SDS011;24237;50.106;20.014;2023-07-20T09:36:14;4.78;;;1.98;;
38455;SDS011;24237;50.106;20.014;2023-07-20T09:38:43;6.85;;;2.35;;
38455;SDS011;24237;50.106;20.014;2023-07-20T09:41:13;8.10;;;4.72;;
38455;SDS011;24237;50.106;20.014;2023-07-20T09:43:40;5.57;;;2.13;;
38455;SDS011;24237;50.106;20.014;2023-07-20T09:46:06;6.10;;;2.30;;
38455;SDS011;24237;50.106;20.014;2023-07-20T09:48:32;16.33;;;3.28;;
38455;SDS011;24237;50.106;20.014;2023-07-20T09:50:58;8.40;;;2.70;;
38455;SDS011;24237;50.106;20.014;2023-07-20T09:53:24;7.35;;;2.50;;
38455;SDS011;24237;50.106;20.014;2023-07-20T09:55:51;10.20;;;2.53;;
38455;SDS011;24237;50.106;20.014;2023-07-20T09:58:17;7.97;;;2.55;;
38455;SDS011;24237;50.106;20.014;2023-07-20T10:00:44;6.07;;;2.30;;
38455;SDS011;24237;50.106;20.014;2023-07-20T10:03:19;10.02;;;3.00;;
38455;SDS011;24237;50.106;20.014;2023-07-20T10:05:53;8.23;;;2.72;;
38455;SDS011;24237;50.106;20.014;2023-07-20T10:08:27;17.65;;;2.88;;
38455;SDS011;24237;50.106;20.014;2023-07-20T10:10:55;8.52;;;2.92;;
38455;SDS011;24237;50.106;20.014;2023-07-20T10:13:27;8.93;;;2.90;;
38455;SDS011;24237;50.106;20.014;2023-07-20T10:15:54;5.65;;;2.83;;
38455;SDS011;24237;50.106;20.014;2023-07-20T10:21:24;10.27;;;2.47;;
38455;SDS011;24237;50.106;20.014;2023-07-20T10:23:50;6.10;;;2.50;;
38455;SDS011;24237;50.106;20.014;2023-07-20T10:26:16;5.85;;;2.70;;
38455;SDS011;24237;50.106;20.014;2023-07-20T10:28:41;6.55;;;2.38;;
38455;SDS011;24237;50.106;20.014;2023-07-20T10:31:08;13.52;;;3.38;;
38455;SDS011;24237;50.106;20.014;2023-07-20T10:33:37;9.82;;;3.67;;
38455;SDS011;24237;50.106;20.014;2023-07-20T10:36:04;5.80;;;2.53;;
38455;SDS011;24237;50.106;20.014;2023-07-20T10:38:44;8.63;;;2.47;;
38455;SDS011;24237;50.106;20.014;2023-07-20T10:41:23;6.18;;;2.75;;
38455;SDS011;24237;50.106;20.014;2023-07-20T10:44:03;7.75;;;2.35;;
38455;SDS011;24237;50.106;20.014;2023-07-20T10:46:33;6.28;;;2.60;;
38455;SDS011;24237;50.106;20.014;2023-07-20T10:49:06;5.43;;;2.65;;
38455;SDS011;24237;50.106;20.014;2023-07-20T10:56:40;8.15;;;2.65;;
38455;SDS011;24237;50.106;20.014;2023-07-20T10:59:17;11.20;;;3.10;;
38455;SDS011;24237;50.106;20.014;2023-07-20T11:02:09;8.20;;;2.65;;
38455;SDS011;24237;50.106;20.014;2023-07-20T11:07:16;14.38;;;2.72;;
38455;SDS011;24237;50.106;20.014;2023-07-20T11:09:43;8.57;;;3.03;;
38455;SDS011;24237;50.106;20.014;2023-07-20T11:12:10;6.88;;;2.90;;
38455;SDS011;24237;50.106;20.014;2023-07-20T11:14:39;9.57;;;3.22;;
38455;SDS011;24237;50.106;20.014;2023-07-20T11:17:17;6.30;;;3.33;;
38455;SDS011;24237;50.106;20.014;2023-07-20T11:19:47;9.40;;;3.30;;
38455;SDS011;24237;50.106;20.014;2023-07-20T11:22:16;5.82;;;3.30;;
38455;SDS011;24237;50.106;20.014;2023-07-20T11:24:42;6.22;;;2.92;;
38455;SDS011;24237;50.106;20.014;2023-07-20T11:27:08;11.43;;;3.20;;
38455;SDS011;24237;50.106;20.014;2023-07-20T11:29:34;10.43;;;3.75;;
38455;SDS011;24237;50.106;20.014;2023-07-20T11:32:02;8.07;;;4.32;;
38455;SDS011;24237;50.106;20.014;2023-07-20T11:34:30;11.23;;;4.28;;
38455;SDS011;24237;50.106;20.014;2023-07-20T11:36:57;14.18;;;4.10;;
38455;SDS011;24237;50.106;20.014;2023-07-20T11:39:23;9.95;;;3.75;;
38455;SDS011;24237;50.106;20.014;2023-07-20T11:41:52;9.50;;;4.20;;
38455;SDS011;24237;50.106;20.014;2023-07-20T11:44:21;10.32;;;4.47;;
38455;SDS011;24237;50.106;20.014;2023-07-20T11:47:02;9.73;;;4.65;;
38455;SDS011;24237;50.106;20.014;2023-07-20T11:49:35;9.18;;;4.15;;
38455;SDS011;24237;50.106;20.014;2023-07-20T11:52:03;14.52;;;4.22;;
38455;SDS011;24237;50.106;20.014;2023-07-20T11:56:56;11.98;;;3.92;;
38455;SDS011;24237;50.106;20.014;2023-07-20T11:59:25;15.65;;;5.05;;
38455;SDS011;24237;50.106;20.014;2023-07-20T12:01:50;7.43;;;4.47;;
38455;SDS011;24237;50.106;20.014;2023-07-20T12:04:17;13.65;;;4.20;;
38455;SDS011;24237;50.106;20.014;2023-07-20T12:06:44;9.75;;;3.72;;
38455;SDS011;24237;50.106;20.014;2023-07-20T12:09:13;7.00;;;4.50;;
38455;SDS011;24237;50.106;20.014;2023-07-20T12:11:42;6.30;;;4.20;;
38455;SDS011;24237;50.106;20.014;2023-07-20T12:14:09;7.20;;;4.10;;
38455;SDS011;24237;50.106;20.014;2023-07-20T12:16:35;9.13;;;4.05;;
38455;SDS011;24237;50.106;20.014;2023-07-20T12:19:03;16.77;;;5.22;;
38455;SDS011;24237;50.106;20.014;2023-07-20T12:21:34;11.98;;;4.18;;
38455;SDS011;24237;50.106;20.014;2023-07-20T12:24:01;8.52;;;4.30;;
38455;SDS011;24237;50.106;20.014;2023-07-20T12:26:29;8.50;;;3.78;;
38455;SDS011;24237;50.106;20.014;2023-07-20T12:28:55;15.98;;;5.20;;
38455;SDS011;24237;50.106;20.014;2023-07-20T12:31:21;5.03;;;3.30;;
38455;SDS011;24237;50.106;20.014;2023-07-20T12:33:48;13.35;;;4.53;;
38455;SDS011;24237;50.106;20.014;2023-07-20T12:36:14;13.38;;;4.00;;
38455;SDS011;24237;50.106;20.014;2023-07-20T12:38:40;11.40;;;4.38;;
38455;SDS011;24237;50.106;20.014;2023-07-20T12:41:07;10.00;;;4.10;;
38455;SDS011;24237;50.106;20.014;2023-07-20T12:43:32;16.02;;;3.95;;
38455;SDS011;24237;50.106;20.014;2023-07-20T12:45:59;10.45;;;3.30;;
38455;SDS011;24237;50.106;20.014;2023-07-20T12:48:24;6.95;;;2.70;;
38455;SDS011;24237;50.106;20.014;2023-07-20T12:50:50;7.32;;;3.10;;
38455;SDS011;24237;50.106;20.014;2023-07-20T12:53:16;6.40;;;2.58;;
38455;SDS011;24237;50.106;20.014;2023-07-20T12:55:41;7.00;;;2.53;;
38455;SDS011;24237;50.106;20.014;2023-07-20T12:58:07;7.28;;;2.50;;
38455;SDS011;24237;50.106;20.014;2023-07-20T13:00:33;7.05;;;2.42;;
38455;SDS011;24237;50.106;20.014;2023-07-20T13:02:59;5.50;;;2.80;;
38455;SDS011;24237;50.106;20.014;2023-07-20T13:05:27;10.23;;;2.55;;
38455;SDS011;24237;50.106;20.014;2023-07-20T13:07:52;5.43;;;2.40;;
38455;SDS011;24237;50.106;20.014;2023-07-20T13:10:18;10.85;;;2.58;;
38455;SDS011;24237;50.106;20.014;2023-07-20T13:12:44;14.32;;;2.38;;
38455;SDS011;24237;50.106;20.014;2023-07-20T13:15:10;3.08;;;2.15;;
38455;SDS011;24237;50.106;20.014;2023-07-20T13:17:36;6.60;;;2.42;;
38455;SDS011;24237;50.106;20.014;2023-07-20T13:20:04;7.63;;;2.30;;
38455;SDS011;24237;50.106;20.014;2023-07-20T13:22:31;7.03;;;2.50;;
38455;SDS011;24237;50.106;20.014;2023-07-20T13:24:57;3.45;;;2.25;;
38455;SDS011;24237;50.106;20.014;2023-07-20T13:27:23;10.07;;;2.65;;
38455;SDS011;24237;50.106;20.014;2023-07-20T13:29:50;10.35;;;2.83;;
38455;SDS011;24237;50.106;20.014;2023-07-20T13:32:16;9.82;;;2.63;;
38455;SDS011;24237;50.106;20.014;2023-07-20T13:34:43;7.93;;;2.42;;
38455;SDS011;24237;50.106;20.014;2023-07-20T13:37:09;6.35;;;2.47;;
38455;SDS011;24237;50.106;20.014;2023-07-20T13:39:36;5.38;;;2.40;;
38455;SDS011;24237;50.106;20.014;2023-07-20T13:42:01;3.95;;;2.33;;
38455;SDS011;24237;50.106;20.014;2023-07-20T13:44:30;7.60;;;2.67;;
38455;SDS011;24237;50.106;20.014;2023-07-20T13:46:59;10.73;;;2.35;;
38455;SDS011;24237;50.106;20.014;2023-07-20T13:49:25;7.30;;;2.37;;
38455;SDS011;24237;50.106;20.014;2023-07-20T13:51:50;10.95;;;3.20;;
38455;SDS011;24237;50.106;20.014;2023-07-20T13:54:16;9.52;;;2.40;;
38455;SDS011;24237;50.106;20.014;2023-07-20T13:56:42;13.50;;;2.50;;
38455;SDS011;24237;50.106;20.014;2023-07-20T13:59:07;5.88;;;2.35;;
38455;SDS011;24237;50.106;20.014;2023-07-20T14:01:33;8.35;;;2.80;;
38455;SDS011;24237;50.106;20.014;2023-07-20T14:04:00;6.25;;;2.10;;
38455;SDS011;24237;50.106;20.014;2023-07-20T14:06:29;4.32;;;2.00;;
38455;SDS011;24237;50.106;20.014;2023-07-20T14:08:56;7.78;;;2.30;;
38455;SDS011;24237;50.106;20.014;2023-07-20T14:11:22;3.97;;;1.83;;
38455;SDS011;24237;50.106;20.014;2023-07-20T14:13:48;5.45;;;2.25;;
38455;SDS011;24237;50.106;20.014;2023-07-20T14:16:14;4.95;;;2.30;;
38455;SDS011;24237;50.106;20.014;2023-07-20T14:18:40;9.80;;;2.20;;
38455;SDS011;24237;50.106;20.014;2023-07-20T14:21:06;12.38;;;2.47;;
38455;SDS011;24237;50.106;20.014;2023-07-20T14:23:32;10.18;;;2.15;;
38455;SDS011;24237;50.106;20.014;2023-07-20T14:25:58;7.70;;;1.77;;
38455;SDS011;24237;50.106;20.014;2023-07-20T14:28:24;3.55;;;1.60;;
38455;SDS011;24237;50.106;20.014;2023-07-20T14:30:49;10.15;;;1.27;;
38455;SDS011;24237;50.106;20.014;2023-07-20T14:33:15;4.43;;;1.27;;
38455;SDS011;24237;50.106;20.014;2023-07-20T14:35:41;3.92;;;1.60;;
38455;SDS011;24237;50.106;20.014;2023-07-20T14:38:06;6.50;;;2.10;;
38455;SDS011;24237;50.106;20.014;2023-07-20T14:40:32;9.05;;;1.88;;
38455;SDS011;24237;50.106;20.014;2023-07-20T14:42:58;6.95;;;1.73;;
38455;SDS011;24237;50.106;20.014;2023-07-20T14:45:26;4.43;;;1.20;;
38455;SDS011;24237;50.106;20.014;2023-07-20T14:47:52;3.17;;;1.10;;
38455;SDS011;24237;50.106;20.014;2023-07-20T14:50:21;2.60;;;1.75;;
38455;SDS011;24237;50.106;20.014;2023-07-20T14:52:47;3.63;;;1.00;;